Mount Croghan, SC

7:07 PM EDT on March 26, 2015 (GMT -0400)
White Rock Dairy | | Change Station
CLOSE
Current Station
Personal Weather Station
Location: Peachland, NC
Elevation: 469 ft
Nearby Weather Stations

Elev 469 ft 34.81 °N, 80.24 °W | Updated 4 minutes ago

Partly Cloudy
Partly Cloudy
71.1 °F
Feels Like 74 °F
N
6.3
Wind Variable Wind from South

Today
High -- | Low -- °F
--% Chance of Precip.
Yesterday
High -- | Low -- °F
Precip. -- in
7:16 AM 7:37 PM
Waxing Crescent, 46% visible
Pressure 29.77 in
Visibility 9.0 miles
Clouds Clear
Heat Index 74 °F
Dew Point 61 °F
Humidity 70%
Rainfall 0.20 in
Snow Depth Not available.
UV 0 out of 12
Pollen 9.60 out of 12
Air Quality Not available.
Flu Activity Not available.
METAR KCQW 262255Z AUTO 21005KT 9SM CLR 22/12 A2977 RMK AO2

More Conditions Fewer Conditions

Pressure 29.77 in
Visibility 9.0 miles
Clouds Clear
Heat Index 74 °F
Dew Point 61 °F
Humidity 70%
Rainfall 0.20 in
Snow Depth Not available.
UV 0 out of 12
Pollen 9.60 out of 12
Air Quality Not available.
Flu Activity Not available.
METAR KCQW 262255Z AUTO 21005KT 9SM CLR 22/12 A2977 RMK AO2

More Conditions Fewer Conditions

10-Day Weather Forecast

Almanac

Astronomy

Mar. 26, 2015 Rise Set
Actual Time
Civil Twilight
Nautical Twilight
Astronomical Twilight
Moon
Length of Visible Light
Length of Day
Tomorrow will be .
, % of the Moon is Illuminated

Today's Extremes

State Highs State Lows

Community

WunderPhotos

Upload Photos

1,808,632 photos uploaded!

WunderBlogs® & News

Nearby

Air Quality

  Air Quality AQ Index Pollutant
Not available.

Snow Depth

Station Depth Elevation

Earthquake Activity

City Distance Mag. Time & Date
Minimum magnitude displayed is 2.5.

Coastal Water Temperatures

Place Temperature

Stations

Nearby Weather Stations

Station Location Temp. Windchill Dew Point Humidity Wind Precip. Elev Updated Type